sensor_id;sensor_type;location;lat;lon;timestamp;P1;durP1;ratioP1;P2;durP2;ratioP2
4132;SDS011;2080;51.038;7.008;2023-09-12T00:00:04;345.95;;;109.80;;
4132;SDS011;2080;51.038;7.008;2023-09-12T00:02:32;351.63;;;136.15;;
4132;SDS011;2080;51.038;7.008;2023-09-12T00:04:58;520.60;;;447.40;;
4132;SDS011;2080;51.038;7.008;2023-09-12T00:07:23;473.90;;;352.97;;
4132;SDS011;2080;51.038;7.008;2023-09-12T00:09:51;576.63;;;513.67;;
4132;SDS011;2080;51.038;7.008;2023-09-12T00:12:21;570.97;;;505.70;;
4132;SDS011;2080;51.038;7.008;2023-09-12T00:14:47;867.22;;;781.75;;
4132;SDS011;2080;51.038;7.008;2023-09-12T00:17:13;1268.00;;;999.90;;
4132;SDS011;2080;51.038;7.008;2023-09-12T00:19:42;566.17;;;501.15;;
4132;SDS011;2080;51.038;7.008;2023-09-12T00:22:08;585.15;;;521.45;;
4132;SDS011;2080;51.038;7.008;2023-09-12T00:24:35;989.38;;;893.63;;
4132;SDS011;2080;51.038;7.008;2023-09-12T00:27:03;543.30;;;478.13;;
4132;SDS011;2080;51.038;7.008;2023-09-12T00:29:31;1245.85;;;999.90;;
4132;SDS011;2080;51.038;7.008;2023-09-12T00:31:59;1205.40;;;999.90;;
4132;SDS011;2080;51.038;7.008;2023-09-12T00:34:27;1183.72;;;999.90;;
4132;SDS011;2080;51.038;7.008;2023-09-12T00:36:52;1160.30;;;999.90;;
4132;SDS011;2080;51.038;7.008;2023-09-12T00:39:20;926.28;;;842.85;;
4132;SDS011;2080;51.038;7.008;2023-09-12T00:41:45;1175.63;;;999.90;;
4132;SDS011;2080;51.038;7.008;2023-09-12T00:44:13;1243.45;;;999.90;;
4132;SDS011;2080;51.038;7.008;2023-09-12T00:46:38;1151.15;;;999.90;;
4132;SDS011;2080;51.038;7.008;2023-09-12T00:49:09;1129.47;;;999.90;;
4132;SDS011;2080;51.038;7.008;2023-09-12T00:51:38;1222.75;;;999.90;;
4132;SDS011;2080;51.038;7.008;2023-09-12T00:54:07;1217.32;;;999.90;;
4132;SDS011;2080;51.038;7.008;2023-09-12T00:56:33;1147.13;;;999.90;;
4132;SDS011;2080;51.038;7.008;2023-09-12T00:58:58;1149.85;;;999.90;;
4132;SDS011;2080;51.038;7.008;2023-09-12T01:01:24;1237.17;;;999.90;;
4132;SDS011;2080;51.038;7.008;2023-09-12T01:03:49;1211.73;;;999.90;;
4132;SDS011;2080;51.038;7.008;2023-09-12T01:06:15;1145.60;;;999.90;;
4132;SDS011;2080;51.038;7.008;2023-09-12T01:08:44;1211.97;;;999.90;;
4132;SDS011;2080;51.038;7.008;2023-09-12T01:11:10;1015.55;;;920.35;;
4132;SDS011;2080;51.038;7.008;2023-09-12T01:13:36;1263.65;;;999.90;;
4132;SDS011;2080;51.038;7.008;2023-09-12T01:16:02;1207.57;;;999.90;;
4132;SDS011;2080;51.038;7.008;2023-09-12T01:18:27;1217.83;;;999.90;;
4132;SDS011;2080;51.038;7.008;2023-09-12T01:29:02;1201.70;;;999.90;;
4132;SDS011;2080;51.038;7.008;2023-09-12T01:31:31;1163.32;;;999.90;;
4132;SDS011;2080;51.038;7.008;2023-09-12T01:33:58;1202.28;;;999.90;;
4132;SDS011;2080;51.038;7.008;2023-09-12T01:36:36;1212.65;;;999.90;;
4132;SDS011;2080;51.038;7.008;2023-09-12T01:39:01;1257.93;;;999.90;;
4132;SDS011;2080;51.038;7.008;2023-09-12T01:41:27;1226.97;;;999.90;;
4132;SDS011;2080;51.038;7.008;2023-09-12T01:43:56;1269.60;;;999.90;;
4132;SDS011;2080;51.038;7.008;2023-09-12T01:46:22;1282.20;;;999.90;;
4132;SDS011;2080;51.038;7.008;2023-09-12T01:48:51;1246.03;;;999.90;;
4132;SDS011;2080;51.038;7.008;2023-09-12T01:51:20;1269.72;;;999.90;;
4132;SDS011;2080;51.038;7.008;2023-09-12T01:53:47;1263.05;;;999.90;;
4132;SDS011;2080;51.038;7.008;2023-09-12T01:56:14;1292.50;;;999.90;;
4132;SDS011;2080;51.038;7.008;2023-09-12T01:58:45;1287.82;;;999.90;;
4132;SDS011;2080;51.038;7.008;2023-09-12T02:01:11;1285.33;;;999.90;;
4132;SDS011;2080;51.038;7.008;2023-09-12T02:03:36;1301.93;;;999.90;;
4132;SDS011;2080;51.038;7.008;2023-09-12T02:06:04;1303.40;;;999.90;;
4132;SDS011;2080;51.038;7.008;2023-09-12T02:08:30;1318.97;;;999.90;;
4132;SDS011;2080;51.038;7.008;2023-09-12T02:10:55;1291.70;;;999.90;;
4132;SDS011;2080;51.038;7.008;2023-09-12T02:13:21;1027.20;;;933.53;;
4132;SDS011;2080;51.038;7.008;2023-09-12T02:15:49;1127.17;;;999.90;;
4132;SDS011;2080;51.038;7.008;2023-09-12T02:18:14;1294.10;;;999.90;;
4132;SDS011;2080;51.038;7.008;2023-09-12T02:20:42;1206.25;;;999.90;;
4132;SDS011;2080;51.038;7.008;2023-09-12T02:23:10;1297.82;;;999.90;;
4132;SDS011;2080;51.038;7.008;2023-09-12T02:25:36;740.50;;;668.07;;
4132;SDS011;2080;51.038;7.008;2023-09-12T02:28:02;965.97;;;877.55;;
4132;SDS011;2080;51.038;7.008;2023-09-12T02:30:30;1053.65;;;956.30;;
4132;SDS011;2080;51.038;7.008;2023-09-12T02:32:55;1242.97;;;999.90;;
4132;SDS011;2080;51.038;7.008;2023-09-12T02:35:21;1142.45;;;999.90;;
4132;SDS011;2080;51.038;7.008;2023-09-12T02:37:48;1291.75;;;999.90;;
4132;SDS011;2080;51.038;7.008;2023-09-12T02:40:16;1275.97;;;999.90;;
4132;SDS011;2080;51.038;7.008;2023-09-12T02:42:43;1219.68;;;999.90;;
4132;SDS011;2080;51.038;7.008;2023-09-12T02:45:10;404.10;;;268.92;;
4132;SDS011;2080;51.038;7.008;2023-09-12T02:47:36;369.50;;;180.73;;
4132;SDS011;2080;51.038;7.008;2023-09-12T02:50:04;415.37;;;309.27;;
4132;SDS011;2080;51.038;7.008;2023-09-12T02:52:31;324.10;;;102.47;;
4132;SDS011;2080;51.038;7.008;2023-09-12T02:54:57;387.57;;;231.57;;
4132;SDS011;2080;51.038;7.008;2023-09-12T02:57:24;444.90;;;354.88;;
4132;SDS011;2080;51.038;7.008;2023-09-12T02:59:50;393.70;;;243.90;;
4132;SDS011;2080;51.038;7.008;2023-09-12T03:02:15;721.20;;;653.23;;
4132;SDS011;2080;51.038;7.008;2023-09-12T03:04:40;629.47;;;564.93;;
4132;SDS011;2080;51.038;7.008;2023-09-12T03:07:08;1081.10;;;982.80;;
4132;SDS011;2080;51.038;7.008;2023-09-12T03:09:33;1194.53;;;999.90;;
4132;SDS011;2080;51.038;7.008;2023-09-12T03:12:02;1230.93;;;999.90;;
4132;SDS011;2080;51.038;7.008;2023-09-12T03:14:27;1206.55;;;999.90;;
4132;SDS011;2080;51.038;7.008;2023-09-12T03:16:53;1218.80;;;999.90;;
4132;SDS011;2080;51.038;7.008;2023-09-12T03:19:18;845.53;;;766.83;;
4132;SDS011;2080;51.038;7.008;2023-09-12T03:21:44;1109.13;;;999.90;;
4132;SDS011;2080;51.038;7.008;2023-09-12T03:24:09;1080.07;;;980.97;;
4132;SDS011;2080;51.038;7.008;2023-09-12T03:26:35;758.95;;;686.78;;
4132;SDS011;2080;51.038;7.008;2023-09-12T03:29:03;746.47;;;674.83;;
4132;SDS011;2080;51.038;7.008;2023-09-12T03:31:29;495.20;;;439.80;;
4132;SDS011;2080;51.038;7.008;2023-09-12T03:33:55;592.63;;;532.57;;
4132;SDS011;2080;51.038;7.008;2023-09-12T03:36:23;470.30;;;386.77;;
4132;SDS011;2080;51.038;7.008;2023-09-12T03:38:48;542.15;;;485.40;;
4132;SDS011;2080;51.038;7.008;2023-09-12T03:41:14;466.10;;;377.45;;
4132;SDS011;2080;51.038;7.008;2023-09-12T03:43:39;773.15;;;697.78;;
4132;SDS011;2080;51.038;7.008;2023-09-12T03:46:07;561.88;;;503.27;;
4132;SDS011;2080;51.038;7.008;2023-09-12T03:48:34;488.97;;;429.90;;
4132;SDS011;2080;51.038;7.008;2023-09-12T03:51:02;476.83;;;402.33;;
4132;SDS011;2080;51.038;7.008;2023-09-12T03:53:30;470.60;;;400.30;;
4132;SDS011;2080;51.038;7.008;2023-09-12T03:55:57;886.47;;;808.20;;
4132;SDS011;2080;51.038;7.008;2023-09-12T03:58:23;983.60;;;893.70;;
4132;SDS011;2080;51.038;7.008;2023-09-12T04:00:51;778.05;;;706.10;;
4132;SDS011;2080;51.038;7.008;2023-09-12T04:03:19;509.95;;;424.73;;
4132;SDS011;2080;51.038;7.008;2023-09-12T04:05:49;599.13;;;539.20;;
4132;SDS011;2080;51.038;7.008;2023-09-12T04:08:15;441.60;;;315.55;;
4132;SDS011;2080;51.038;7.008;2023-09-12T04:10:43;444.10;;;343.10;;
4132;SDS011;2080;51.038;7.008;2023-09-12T04:13:08;526.95;;;471.17;;
4132;SDS011;2080;51.038;7.008;2023-09-12T04:15:34;658.67;;;595.42;;
4132;SDS011;2080;51.038;7.008;2023-09-12T04:18:01;613.03;;;553.08;;
4132;SDS011;2080;51.038;7.008;2023-09-12T04:20:27;772.10;;;700.40;;
4132;SDS011;2080;51.038;7.008;2023-09-12T04:22:52;549.23;;;492.93;;
4132;SDS011;2080;51.038;7.008;2023-09-12T04:25:18;410.73;;;263.97;;
4132;SDS011;2080;51.038;7.008;2023-09-12T04:27:44;397.00;;;227.02;;
4132;SDS011;2080;51.038;7.008;2023-09-12T04:30:10;342.05;;;123.25;;
4132;SDS011;2080;51.038;7.008;2023-09-12T04:32:38;435.70;;;326.48;;
4132;SDS011;2080;51.038;7.008;2023-09-12T04:35:04;343.38;;;135.70;;
4132;SDS011;2080;51.038;7.008;2023-09-12T04:37:29;355.47;;;173.57;;
4132;SDS011;2080;51.038;7.008;2023-09-12T04:39:55;301.40;;;71.67;;
4132;SDS011;2080;51.038;7.008;2023-09-12T04:42:23;342.65;;;147.85;;
4132;SDS011;2080;51.038;7.008;2023-09-12T04:44:51;299.30;;;67.82;;
4132;SDS011;2080;51.038;7.008;2023-09-12T04:47:16;348.33;;;155.00;;
4132;SDS011;2080;51.038;7.008;2023-09-12T04:49:44;418.85;;;298.88;;
4132;SDS011;2080;51.038;7.008;2023-09-12T04:52:12;371.20;;;205.23;;
4132;SDS011;2080;51.038;7.008;2023-09-12T04:54:40;388.83;;;233.37;;
4132;SDS011;2080;51.038;7.008;2023-09-12T04:57:08;345.58;;;154.45;;
4132;SDS011;2080;51.038;7.008;2023-09-12T04:59:36;310.10;;;72.20;;
4132;SDS011;2080;51.038;7.008;2023-09-12T05:02:02;317.00;;;95.30;;
4132;SDS011;2080;51.038;7.008;2023-09-12T05:04:28;303.17;;;62.63;;
4132;SDS011;2080;51.038;7.008;2023-09-12T05:06:57;323.70;;;77.65;;
4132;SDS011;2080;51.038;7.008;2023-09-12T05:09:22;325.03;;;107.90;;
4132;SDS011;2080;51.038;7.008;2023-09-12T05:11:47;332.43;;;123.43;;
4132;SDS011;2080;51.038;7.008;2023-09-12T05:14:15;665.90;;;601.50;;
4132;SDS011;2080;51.038;7.008;2023-09-12T05:16:44;798.80;;;724.50;;
4132;SDS011;2080;51.038;7.008;2023-09-12T05:19:10;347.52;;;142.95;;
4132;SDS011;2080;51.038;7.008;2023-09-12T05:21:36;461.27;;;410.35;;
4132;SDS011;2080;51.038;7.008;2023-09-12T05:24:01;506.10;;;453.07;;
4132;SDS011;2080;51.038;7.008;2023-09-12T05:26:27;434.35;;;335.52;;
4132;SDS011;2080;51.038;7.008;2023-09-12T05:28:52;325.92;;;112.13;;
4132;SDS011;2080;51.038;7.008;2023-09-12T05:31:18;335.48;;;116.15;;
4132;SDS011;2080;51.038;7.008;2023-09-12T05:33:45;438.67;;;351.75;;
4132;SDS011;2080;51.038;7.008;2023-09-12T05:36:11;492.67;;;440.30;;
4132;SDS011;2080;51.038;7.008;2023-09-12T05:38:39;498.38;;;445.20;;
4132;SDS011;2080;51.038;7.008;2023-09-12T05:41:06;662.88;;;601.92;;
4132;SDS011;2080;51.038;7.008;2023-09-12T05:43:32;582.13;;;525.10;;
4132;SDS011;2080;51.038;7.008;2023-09-12T05:45:57;791.80;;;722.60;;
4132;SDS011;2080;51.038;7.008;2023-09-12T05:48:26;811.67;;;740.35;;
4132;SDS011;2080;51.038;7.008;2023-09-12T05:50:51;517.07;;;462.57;;
4132;SDS011;2080;51.038;7.008;2023-09-12T05:53:18;581.13;;;524.03;;
4132;SDS011;2080;51.038;7.008;2023-09-12T05:55:48;420.27;;;290.90;;
4132;SDS011;2080;51.038;7.008;2023-09-12T05:58:14;441.65;;;344.77;;
4132;SDS011;2080;51.038;7.008;2023-09-12T06:00:39;460.08;;;385.83;;
4132;SDS011;2080;51.038;7.008;2023-09-12T06:03:04;375.27;;;198.45;;
4132;SDS011;2080;51.038;7.008;2023-09-12T06:05:32;420.10;;;271.15;;
4132;SDS011;2080;51.038;7.008;2023-09-12T06:07:58;343.83;;;148.00;;
4132;SDS011;2080;51.038;7.008;2023-09-12T06:10:23;390.50;;;245.53;;
4132;SDS011;2080;51.038;7.008;2023-09-12T06:12:49;422.83;;;302.03;;
4132;SDS011;2080;51.038;7.008;2023-09-12T06:15:14;415.83;;;283.33;;
4132;SDS011;2080;51.038;7.008;2023-09-12T06:17:40;415.35;;;264.27;;
4132;SDS011;2080;51.038;7.008;2023-09-12T06:20:07;349.30;;;145.80;;
4132;SDS011;2080;51.038;7.008;2023-09-12T06:22:33;386.40;;;216.20;;
4132;SDS011;2080;51.038;7.008;2023-09-12T06:24:59;466.90;;;411.97;;
4132;SDS011;2080;51.038;7.008;2023-09-12T06:27:24;412.67;;;261.33;;
4132;SDS011;2080;51.038;7.008;2023-09-12T06:29:50;451.75;;;343.77;;
4132;SDS011;2080;51.038;7.008;2023-09-12T06:32:16;602.88;;;542.85;;
4132;SDS011;2080;51.038;7.008;2023-09-12T06:34:42;793.88;;;723.75;;
4132;SDS011;2080;51.038;7.008;2023-09-12T06:37:10;701.55;;;636.53;;
4132;SDS011;2080;51.038;7.008;2023-09-12T06:39:36;749.33;;;682.10;;
4132;SDS011;2080;51.038;7.008;2023-09-12T06:42:02;518.67;;;463.40;;
4132;SDS011;2080;51.038;7.008;2023-09-12T06:44:29;443.93;;;343.53;;
4132;SDS011;2080;51.038;7.008;2023-09-12T06:46:55;442.77;;;348.20;;
4132;SDS011;2080;51.038;7.008;2023-09-12T06:49:22;438.88;;;311.95;;
4132;SDS011;2080;51.038;7.008;2023-09-12T06:51:48;446.65;;;333.13;;
4132;SDS011;2080;51.038;7.008;2023-09-12T06:54:13;449.05;;;378.27;;
4132;SDS011;2080;51.038;7.008;2023-09-12T06:56:40;378.35;;;220.65;;
4132;SDS011;2080;51.038;7.008;2023-09-12T06:59:07;454.60;;;371.00;;
4132;SDS011;2080;51.038;7.008;2023-09-12T07:01:33;392.80;;;244.40;;
4132;SDS011;2080;51.038;7.008;2023-09-12T07:03:59;406.23;;;248.10;;
4132;SDS011;2080;51.038;7.008;2023-09-12T07:06:24;400.67;;;236.20;;
4132;SDS011;2080;51.038;7.008;2023-09-12T07:08:50;451.93;;;372.60;;
4132;SDS011;2080;51.038;7.008;2023-09-12T07:11:16;522.15;;;467.67;;
4132;SDS011;2080;51.038;7.008;2023-09-12T07:13:42;434.77;;;309.33;;
4132;SDS011;2080;51.038;7.008;2023-09-12T07:16:09;416.17;;;290.43;;
4132;SDS011;2080;51.038;7.008;2023-09-12T07:18:35;444.38;;;352.85;;
4132;SDS011;2080;51.038;7.008;2023-09-12T07:21:04;448.58;;;366.42;;
4132;SDS011;2080;51.038;7.008;2023-09-12T07:23:30;433.73;;;323.20;;
4132;SDS011;2080;51.038;7.008;2023-09-12T07:26:00;433.58;;;330.17;;
4132;SDS011;2080;51.038;7.008;2023-09-12T07:28:29;410.35;;;238.77;;
4132;SDS011;2080;51.038;7.008;2023-09-12T07:30:55;428.52;;;320.55;;
4132;SDS011;2080;51.038;7.008;2023-09-12T07:33:23;444.90;;;346.35;;
4132;SDS011;2080;51.038;7.008;2023-09-12T07:35:49;446.73;;;370.17;;
4132;SDS011;2080;51.038;7.008;2023-09-12T07:38:20;385.77;;;208.02;;
4132;SDS011;2080;51.038;7.008;2023-09-12T07:40:46;398.52;;;243.10;;
4132;SDS011;2080;51.038;7.008;2023-09-12T07:43:11;361.77;;;160.00;;
4132;SDS011;2080;51.038;7.008;2023-09-12T07:45:36;371.73;;;190.57;;
4132;SDS011;2080;51.038;7.008;2023-09-12T07:48:06;448.67;;;361.48;;
4132;SDS011;2080;51.038;7.008;2023-09-12T07:50:37;371.38;;;184.30;;
4132;SDS011;2080;51.038;7.008;2023-09-12T07:53:05;425.85;;;312.58;;
4132;SDS011;2080;51.038;7.008;2023-09-12T07:55:31;420.65;;;289.45;;
4132;SDS011;2080;51.038;7.008;2023-09-12T07:58:01;423.30;;;296.20;;
4132;SDS011;2080;51.038;7.008;2023-09-12T08:00:27;317.30;;;73.43;;
4132;SDS011;2080;51.038;7.008;2023-09-12T08:02:53;365.53;;;146.73;;
4132;SDS011;2080;51.038;7.008;2023-09-12T08:05:18;320.10;;;65.40;;
4132;SDS011;2080;51.038;7.008;2023-09-12T08:07:46;323.73;;;88.13;;
4132;SDS011;2080;51.038;7.008;2023-09-12T09:06:38;358.25;;;154.48;;
4132;SDS011;2080;51.038;7.008;2023-09-12T09:09:09;376.83;;;187.52;;
4132;SDS011;2080;51.038;7.008;2023-09-12T09:11:35;350.25;;;117.05;;
4132;SDS011;2080;51.038;7.008;2023-09-12T09:14:01;343.90;;;113.07;;
4132;SDS011;2080;51.038;7.008;2023-09-12T09:16:30;306.90;;;41.88;;
4132;SDS011;2080;51.038;7.008;2023-09-12T09:18:59;309.83;;;44.15;;
4132;SDS011;2080;51.038;7.008;2023-09-12T09:21:28;346.52;;;118.25;;
4132;SDS011;2080;51.038;7.008;2023-09-12T09:23:59;421.40;;;281.52;;
4132;SDS011;2080;51.038;7.008;2023-09-12T09:26:25;365.37;;;134.23;;
4132;SDS011;2080;51.038;7.008;2023-09-12T09:29:09;357.38;;;130.98;;
4132;SDS011;2080;51.038;7.008;2023-09-12T09:31:39;325.90;;;73.03;;
4132;SDS011;2080;51.038;7.008;2023-09-12T09:34:12;372.45;;;167.52;;
4132;SDS011;2080;51.038;7.008;2023-09-12T09:36:41;361.85;;;161.57;;
4132;SDS011;2080;51.038;7.008;2023-09-12T09:39:08;342.80;;;112.60;;
4132;SDS011;2080;51.038;7.008;2023-09-12T09:41:38;305.70;;;40.22;;
4132;SDS011;2080;51.038;7.008;2023-09-12T09:44:05;305.35;;;43.42;;
4132;SDS011;2080;51.038;7.008;2023-09-12T09:46:32;322.50;;;70.93;;
4132;SDS011;2080;51.038;7.008;2023-09-12T09:48:58;301.65;;;35.50;;
4132;SDS011;2080;51.038;7.008;2023-09-12T09:51:26;301.17;;;35.72;;
4132;SDS011;2080;51.038;7.008;2023-09-12T09:53:54;303.13;;;38.40;;
4132;SDS011;2080;51.038;7.008;2023-09-12T09:56:23;302.77;;;39.60;;
4132;SDS011;2080;51.038;7.008;2023-09-12T10:01:27;306.13;;;44.38;;
4132;SDS011;2080;51.038;7.008;2023-09-12T10:03:56;316.73;;;72.10;;
4132;SDS011;2080;51.038;7.008;2023-09-12T10:06:26;340.58;;;125.28;;
4132;SDS011;2080;51.038;7.008;2023-09-12T10:08:53;392.10;;;217.38;;
4132;SDS011;2080;51.038;7.008;2023-09-12T10:11:23;406.10;;;260.05;;
4132;SDS011;2080;51.038;7.008;2023-09-12T10:13:52;317.83;;;78.80;;
4132;SDS011;2080;51.038;7.008;2023-09-12T10:16:20;456.75;;;372.90;;
4132;SDS011;2080;51.038;7.008;2023-09-12T10:18:55;515.33;;;460.45;;
4132;SDS011;2080;51.038;7.008;2023-09-12T10:21:27;337.65;;;108.88;;
4132;SDS011;2080;51.038;7.008;2023-09-12T10:23:55;362.60;;;154.00;;
4132;SDS011;2080;51.038;7.008;2023-09-12T10:26:22;310.98;;;51.38;;
4132;SDS011;2080;51.038;7.008;2023-09-12T10:28:48;322.60;;;84.30;;
4132;SDS011;2080;51.038;7.008;2023-09-12T10:31:15;317.05;;;77.97;;
4132;SDS011;2080;51.038;7.008;2023-09-12T10:33:43;312.27;;;61.13;;
4132;SDS011;2080;51.038;7.008;2023-09-12T10:36:12;314.95;;;66.38;;
4132;SDS011;2080;51.038;7.008;2023-09-12T10:38:44;321.33;;;52.75;;
4132;SDS011;2080;51.038;7.008;2023-09-12T10:41:12;316.45;;;65.90;;
4132;SDS011;2080;51.038;7.008;2023-09-12T10:43:41;307.55;;;48.45;;
4132;SDS011;2080;51.038;7.008;2023-09-12T10:46:08;324.83;;;92.15;;
4132;SDS011;2080;51.038;7.008;2023-09-12T10:48:35;308.73;;;57.53;;
4132;SDS011;2080;51.038;7.008;2023-09-12T10:51:04;316.30;;;65.27;;
4132;SDS011;2080;51.038;7.008;2023-09-12T10:53:30;330.95;;;93.25;;
4132;SDS011;2080;51.038;7.008;2023-09-12T10:56:13;327.73;;;85.10;;
4132;SDS011;2080;51.038;7.008;2023-09-12T11:01:34;327.58;;;84.22;;
4132;SDS011;2080;51.038;7.008;2023-09-12T11:06:48;317.70;;;72.80;;
4132;SDS011;2080;51.038;7.008;2023-09-12T11:11:46;315.83;;;61.90;;
4132;SDS011;2080;51.038;7.008;2023-09-12T11:14:13;331.85;;;76.53;;
4132;SDS011;2080;51.038;7.008;2023-09-12T11:16:41;313.27;;;65.53;;
4132;SDS011;2080;51.038;7.008;2023-09-12T11:19:20;298.17;;;41.30;;
4132;SDS011;2080;51.038;7.008;2023-09-12T11:21:49;305.35;;;40.28;;
4132;SDS011;2080;51.038;7.008;2023-09-12T11:24:16;318.30;;;69.47;;
4132;SDS011;2080;51.038;7.008;2023-09-12T11:29:23;320.20;;;68.53;;
4132;SDS011;2080;51.038;7.008;2023-09-12T11:31:54;301.50;;;33.65;;
4132;SDS011;2080;51.038;7.008;2023-09-12T11:34:26;303.55;;;33.83;;
4132;SDS011;2080;51.038;7.008;2023-09-12T11:36:56;324.25;;;61.33;;
4132;SDS011;2080;51.038;7.008;2023-09-12T11:39:25;321.23;;;68.03;;
4132;SDS011;2080;51.038;7.008;2023-09-12T11:41:58;307.05;;;53.28;;
4132;SDS011;2080;51.038;7.008;2023-09-12T11:44:25;308.60;;;46.55;;
4132;SDS011;2080;51.038;7.008;2023-09-12T11:46:56;321.10;;;50.05;;
4132;SDS011;2080;51.038;7.008;2023-09-12T11:49:28;321.52;;;44.55;;
4132;SDS011;2080;51.038;7.008;2023-09-12T11:52:07;299.27;;;30.37;;
4132;SDS011;2080;51.038;7.008;2023-09-12T11:54:33;303.50;;;40.65;;
4132;SDS011;2080;51.038;7.008;2023-09-12T11:57:02;307.23;;;33.88;;
4132;SDS011;2080;51.038;7.008;2023-09-12T11:59:28;300.25;;;46.20;;
4132;SDS011;2080;51.038;7.008;2023-09-12T12:01:56;303.60;;;41.55;;
4132;SDS011;2080;51.038;7.008;2023-09-12T12:04:23;326.27;;;55.20;;
4132;SDS011;2080;51.038;7.008;2023-09-12T12:06:51;319.10;;;50.38;;
4132;SDS011;2080;51.038;7.008;2023-09-12T12:09:19;325.45;;;65.60;;
4132;SDS011;2080;51.038;7.008;2023-09-12T12:11:46;300.75;;;37.47;;
4132;SDS011;2080;51.038;7.008;2023-09-12T12:14:12;326.75;;;93.60;;
4132;SDS011;2080;51.038;7.008;2023-09-12T12:16:44;301.42;;;35.45;;
4132;SDS011;2080;51.038;7.008;2023-09-12T12:19:10;304.20;;;34.17;;
4132;SDS011;2080;51.038;7.008;2023-09-12T12:21:39;308.55;;;33.60;;
4132;SDS011;2080;51.038;7.008;2023-09-12T12:24:07;310.05;;;52.85;;
4132;SDS011;2080;51.038;7.008;2023-09-12T12:26:40;312.70;;;45.45;;
4132;SDS011;2080;51.038;7.008;2023-09-12T12:29:06;294.85;;;26.05;;
4132;SDS011;2080;51.038;7.008;2023-09-12T12:31:32;303.60;;;30.70;;
4132;SDS011;2080;51.038;7.008;2023-09-12T12:33:57;315.37;;;52.47;;
4132;SDS011;2080;51.038;7.008;2023-09-12T12:36:25;304.60;;;42.90;;
4132;SDS011;2080;51.038;7.008;2023-09-12T12:38:50;305.80;;;36.00;;
4132;SDS011;2080;51.038;7.008;2023-09-12T12:41:28;308.95;;;54.65;;
4132;SDS011;2080;51.038;7.008;2023-09-12T12:43:56;292.92;;;30.50;;
4132;SDS011;2080;51.038;7.008;2023-09-12T12:46:26;292.35;;;24.13;;
4132;SDS011;2080;51.038;7.008;2023-09-12T12:48:51;303.13;;;47.13;;
4132;SDS011;2080;51.038;7.008;2023-09-12T12:53:54;298.33;;;36.33;;
4132;SDS011;2080;51.038;7.008;2023-09-12T12:56:29;293.20;;;25.90;;
4132;SDS011;2080;51.038;7.008;2023-09-12T12:59:00;303.63;;;35.00;;
4132;SDS011;2080;51.038;7.008;2023-09-12T13:01:29;309.30;;;40.15;;
4132;SDS011;2080;51.038;7.008;2023-09-12T13:03:54;306.30;;;49.13;;
4132;SDS011;2080;51.038;7.008;2023-09-12T13:06:21;294.27;;;24.73;;
4132;SDS011;2080;51.038;7.008;2023-09-12T13:08:48;298.70;;;24.52;;
4132;SDS011;2080;51.038;7.008;2023-09-12T13:11:14;296.67;;;31.30;;
4132;SDS011;2080;51.038;7.008;2023-09-12T13:13:40;299.30;;;24.98;;
4132;SDS011;2080;51.038;7.008;2023-09-12T13:16:08;296.95;;;29.25;;
4132;SDS011;2080;51.038;7.008;2023-09-12T13:18:38;305.17;;;35.58;;
4132;SDS011;2080;51.038;7.008;2023-09-12T13:21:04;296.80;;;23.83;;
4132;SDS011;2080;51.038;7.008;2023-09-12T13:23:36;304.27;;;28.13;;
4132;SDS011;2080;51.038;7.008;2023-09-12T13:26:06;295.15;;;22.92;;
4132;SDS011;2080;51.038;7.008;2023-09-12T13:28:36;295.45;;;24.20;;
4132;SDS011;2080;51.038;7.008;2023-09-12T13:31:04;301.48;;;25.17;;
4132;SDS011;2080;51.038;7.008;2023-09-12T13:33:29;295.08;;;34.00;;
4132;SDS011;2080;51.038;7.008;2023-09-12T13:35:55;308.13;;;51.13;;
4132;SDS011;2080;51.038;7.008;2023-09-12T13:38:20;292.80;;;23.23;;
4132;SDS011;2080;51.038;7.008;2023-09-12T13:40:48;310.90;;;45.30;;
4132;SDS011;2080;51.038;7.008;2023-09-12T13:43:14;299.30;;;35.63;;
4132;SDS011;2080;51.038;7.008;2023-09-12T13:45:42;301.15;;;29.65;;
4132;SDS011;2080;51.038;7.008;2023-09-12T13:48:07;293.85;;;26.45;;
4132;SDS011;2080;51.038;7.008;2023-09-12T13:50:33;294.10;;;23.80;;
4132;SDS011;2080;51.038;7.008;2023-09-12T13:52:59;293.90;;;40.57;;
4132;SDS011;2080;51.038;7.008;2023-09-12T13:55:28;300.67;;;33.05;;
4132;SDS011;2080;51.038;7.008;2023-09-12T13:57:57;307.70;;;49.10;;
4132;SDS011;2080;51.038;7.008;2023-09-12T14:00:22;308.77;;;48.53;;
4132;SDS011;2080;51.038;7.008;2023-09-12T14:02:47;309.57;;;54.63;;
4132;SDS011;2080;51.038;7.008;2023-09-12T14:05:13;306.63;;;41.10;;
4132;SDS011;2080;51.038;7.008;2023-09-12T14:07:38;312.83;;;47.83;;
4132;SDS011;2080;51.038;7.008;2023-09-12T14:10:06;314.80;;;33.65;;
4132;SDS011;2080;51.038;7.008;2023-09-12T14:12:34;301.20;;;33.47;;
4132;SDS011;2080;51.038;7.008;2023-09-12T14:15:01;306.65;;;31.70;;
4132;SDS011;2080;51.038;7.008;2023-09-12T14:17:28;310.50;;;30.85;;
4132;SDS011;2080;51.038;7.008;2023-09-12T14:19:54;312.00;;;34.10;;
4132;SDS011;2080;51.038;7.008;2023-09-12T14:22:20;310.85;;;47.85;;
4132;SDS011;2080;51.038;7.008;2023-09-12T14:24:46;303.37;;;38.97;;
4132;SDS011;2080;51.038;7.008;2023-09-12T14:27:14;300.15;;;34.17;;
4132;SDS011;2080;51.038;7.008;2023-09-12T14:29:41;302.55;;;38.83;;
4132;SDS011;2080;51.038;7.008;2023-09-12T14:32:10;309.92;;;42.88;;
4132;SDS011;2080;51.038;7.008;2023-09-12T14:34:36;314.67;;;38.03;;
4132;SDS011;2080;51.038;7.008;2023-09-12T14:37:04;303.67;;;39.10;;
4132;SDS011;2080;51.038;7.008;2023-09-12T14:39:29;306.92;;;52.70;;
4132;SDS011;2080;51.038;7.008;2023-09-12T14:41:57;304.08;;;34.65;;
4132;SDS011;2080;51.038;7.008;2023-09-12T14:44:22;341.63;;;54.43;;
4132;SDS011;2080;51.038;7.008;2023-09-12T14:46:52;305.15;;;36.25;;
4132;SDS011;2080;51.038;7.008;2023-09-12T14:49:20;305.60;;;36.03;;
4132;SDS011;2080;51.038;7.008;2023-09-12T14:51:45;308.37;;;39.33;;
4132;SDS011;2080;51.038;7.008;2023-09-12T14:54:11;311.48;;;43.45;;
4132;SDS011;2080;51.038;7.008;2023-09-12T14:56:36;309.83;;;42.83;;
4132;SDS011;2080;51.038;7.008;2023-09-12T14:59:03;302.30;;;47.88;;
4132;SDS011;2080;51.038;7.008;2023-09-12T15:01:33;307.95;;;38.17;;
4132;SDS011;2080;51.038;7.008;2023-09-12T15:04:00;324.13;;;53.90;;
4132;SDS011;2080;51.038;7.008;2023-09-12T15:06:26;316.20;;;40.40;;
4132;SDS011;2080;51.038;7.008;2023-09-12T15:08:52;312.80;;;46.20;;
4132;SDS011;2080;51.038;7.008;2023-09-12T15:11:17;304.47;;;38.40;;
4132;SDS011;2080;51.038;7.008;2023-09-12T15:13:45;320.10;;;53.20;;
4132;SDS011;2080;51.038;7.008;2023-09-12T15:16:13;312.52;;;41.05;;
4132;SDS011;2080;51.038;7.008;2023-09-12T15:18:41;304.92;;;31.98;;
4132;SDS011;2080;51.038;7.008;2023-09-12T15:21:09;311.00;;;39.65;;
4132;SDS011;2080;51.038;7.008;2023-09-12T15:23:34;310.52;;;40.70;;
4132;SDS011;2080;51.038;7.008;2023-09-12T15:26:00;314.92;;;37.60;;
4132;SDS011;2080;51.038;7.008;2023-09-12T15:28:25;301.50;;;35.65;;
4132;SDS011;2080;51.038;7.008;2023-09-12T15:30:50;307.47;;;38.83;;
4132;SDS011;2080;51.038;7.008;2023-09-12T15:33:18;319.33;;;56.50;;
4132;SDS011;2080;51.038;7.008;2023-09-12T15:35:44;306.10;;;35.75;;
4132;SDS011;2080;51.038;7.008;2023-09-12T15:38:10;317.20;;;45.20;;
4132;SDS011;2080;51.038;7.008;2023-09-12T15:40:40;308.92;;;41.05;;
4132;SDS011;2080;51.038;7.008;2023-09-12T15:43:05;302.48;;;36.63;;
4132;SDS011;2080;51.038;7.008;2023-09-12T15:45:31;308.53;;;42.33;;